createdAt,value
2022-11-05T00:00:17.536Z,40.58
2022-11-05T00:03:02.795Z,38.85
2022-11-05T00:05:48.535Z,42.58
2022-11-05T00:08:33.867Z,39.63
2022-11-05T00:11:00.918Z,38.72
2022-11-05T00:13:46.796Z,38.25
2022-11-05T00:16:32.459Z,37.10
2022-11-05T00:19:09.168Z,36.67
2022-11-05T00:21:58.138Z,35.78
2022-11-05T00:24:43.748Z,43.65
2022-11-05T00:27:11.253Z,41.38
2022-11-05T00:29:38.120Z,36.40
2022-11-05T00:32:05.124Z,40.90
2022-11-05T00:34:32.336Z,36.37
2022-11-05T00:36:59.121Z,45.13
2022-11-05T00:39:25.941Z,39.15
2022-11-05T00:42:11.430Z,39.53
2022-11-05T00:44:56.662Z,36.63
2022-11-05T00:47:41.805Z,39.55
2022-11-05T00:50:10.907Z,41.70
2022-11-05T00:52:57.076Z,39.60
2022-11-05T00:55:34.875Z,45.10
2022-11-05T00:58:03.840Z,39.03
2022-11-05T01:00:33.064Z,42.13
2022-11-05T01:05:28.793Z,41.15
2022-11-05T01:07:56.069Z,42.75
2022-11-05T01:10:24.673Z,32.60
2022-11-05T01:12:51.738Z,38.78
2022-11-05T01:15:19.925Z,38.30
2022-11-05T01:17:47.109Z,44.17
2022-11-05T01:20:14.158Z,36.50
2022-11-05T01:22:41.031Z,36.97
2022-11-05T01:25:08.906Z,45.08
2022-11-05T01:27:37.380Z,35.25
2022-11-05T01:30:06.961Z,34.60
2022-11-05T01:32:35.522Z,38.58
2022-11-05T01:35:04.070Z,40.33
2022-11-05T01:37:30.967Z,37.50
2022-11-05T01:39:58.010Z,43.67
2022-11-05T01:42:26.449Z,42.42
2022-11-05T01:44:55.719Z,41.13
2022-11-05T01:50:14.086Z,37.92
2022-11-05T01:52:40.941Z,42.88
2022-11-05T01:55:10.437Z,38.17
2022-11-05T01:57:37.479Z,40.40
2022-11-05T02:00:04.866Z,40.75
2022-11-05T02:02:40.123Z,41.72
2022-11-05T02:05:11.187Z,44.05
2022-11-05T02:07:38.368Z,42.22
2022-11-05T02:10:10.203Z,41.13
2022-11-05T02:12:39.594Z,42.87
2022-11-05T02:18:10.920Z,45.13
2022-11-05T02:20:59.683Z,48.23
2022-11-05T02:24:18.414Z,40.60
2022-11-05T02:27:03.496Z,42.28
2022-11-05T02:30:03.499Z,45.73
2022-11-05T02:32:36.162Z,41.40
2022-11-05T02:35:19.080Z,43.17
2022-11-05T02:38:06.599Z,43.20
2022-11-05T02:40:49.522Z,40.63
2022-11-05T02:43:28.305Z,44.57
2022-11-05T02:46:01.184Z,43.08
2022-11-05T02:48:34.065Z,43.47
2022-11-05T02:51:18.785Z,43.17
2022-11-05T02:54:01.825Z,43.97
2022-11-05T02:56:35.603Z,43.03
2022-11-05T02:59:02.436Z,40.37
2022-11-05T03:01:29.384Z,39.43
2022-11-05T03:04:00.887Z,39.53
2022-11-05T03:06:41.255Z,38.92
2022-11-05T03:09:32.128Z,39.57
2022-11-05T03:12:10.120Z,41.33
2022-11-05T03:14:49.101Z,41.63
2022-11-05T03:17:34.043Z,40.33
2022-11-05T03:20:10.662Z,38.30
2022-11-05T03:22:47.645Z,47.13
2022-11-05T03:25:21.909Z,48.13
2022-11-05T03:27:54.457Z,38.67
2022-11-05T03:30:21.576Z,41.10
2022-11-05T03:32:54.871Z,47.20
2022-11-05T03:35:27.890Z,48.17
2022-11-05T03:38:03.405Z,47.27
2022-11-05T03:40:35.159Z,48.50
2022-11-05T03:43:06.707Z,45.17
2022-11-05T03:45:38.402Z,41.67
2022-11-05T03:48:08.277Z,42.20
2022-11-05T03:50:54.180Z,39.73
2022-11-05T03:53:30.199Z,45.00
2022-11-05T03:56:03.348Z,46.17
2022-11-05T03:58:31.861Z,47.83
2022-11-05T04:01:02.777Z,37.17
2022-11-05T04:03:36.398Z,43.70
2022-11-05T04:06:24.087Z,38.57
2022-11-05T04:09:09.740Z,38.60
2022-11-05T04:11:55.651Z,40.17
2022-11-05T04:14:22.549Z,40.50
2022-11-05T04:17:08.764Z,43.23
2022-11-05T04:19:58.174Z,41.00
2022-11-05T04:22:45.370Z,40.60
2022-11-05T04:25:13.322Z,35.43
2022-11-05T04:27:40.137Z,40.23
2022-11-05T04:30:20.040Z,38.20
2022-11-05T04:32:56.756Z,40.23
2022-11-05T04:35:23.848Z,46.60
2022-11-05T04:37:50.715Z,38.80
2022-11-05T04:40:17.553Z,42.67
2022-11-05T04:42:44.354Z,46.53
2022-11-05T04:45:11.134Z,40.43
2022-11-05T04:47:37.959Z,33.90
2022-11-05T04:50:05.560Z,38.20
2022-11-05T04:52:32.432Z,38.30
2022-11-05T04:54:59.263Z,42.30
2022-11-05T04:57:26.056Z,42.50
2022-11-05T04:59:55.145Z,40.57
2022-11-05T05:02:21.993Z,37.90
2022-11-05T05:04:48.843Z,37.77
2022-11-05T05:07:15.670Z,35.93
2022-11-05T05:09:42.493Z,42.70
2022-11-05T05:12:09.262Z,42.53
2022-11-05T05:14:36.172Z,48.27
2022-11-05T05:17:03.036Z,44.60
2022-11-05T05:19:29.904Z,44.90
2022-11-05T05:21:56.731Z,42.13
2022-11-05T05:24:25.134Z,46.40
2022-11-05T05:26:52.155Z,42.20
2022-11-05T05:29:19.379Z,43.40
2022-11-05T05:31:46.179Z,46.63
2022-11-05T05:34:14.420Z,46.93
2022-11-05T05:36:41.214Z,42.50
2022-11-05T05:39:08.892Z,43.15
2022-11-05T05:41:35.687Z,47.53
2022-11-05T05:44:04.374Z,40.43
2022-11-05T05:46:31.149Z,40.55
2022-11-05T05:48:58.297Z,42.20
2022-11-05T05:51:25.075Z,43.73
2022-11-05T05:53:53.936Z,44.95
2022-11-05T05:56:21.145Z,46.63
2022-11-05T05:58:48.256Z,41.47
2022-11-05T06:01:19.193Z,45.50
2022-11-05T06:03:47.309Z,40.47
2022-11-05T06:06:15.342Z,49.30
2022-11-05T06:08:42.606Z,46.75
2022-11-05T06:11:09.800Z,50.13
2022-11-05T06:13:37.528Z,52.17
2022-11-05T06:16:07.081Z,47.00
2022-11-05T06:18:34.809Z,47.20
2022-11-05T06:21:13.010Z,49.67
2022-11-05T06:23:41.718Z,44.22
2022-11-05T06:26:11.317Z,45.30
2022-11-05T06:28:38.346Z,42.05
2022-11-05T06:31:05.952Z,44.53
2022-11-05T06:33:32.820Z,40.22
2022-11-05T06:36:01.279Z,43.25
2022-11-05T06:38:29.466Z,42.93
2022-11-05T06:40:59.360Z,46.53
2022-11-05T06:43:27.385Z,42.45
2022-11-05T06:45:54.974Z,44.22
2022-11-05T06:48:22.012Z,45.92
2022-11-05T06:50:48.865Z,43.05
2022-11-05T06:53:15.696Z,44.70
2022-11-05T06:55:44.870Z,39.97
2022-11-05T06:58:11.716Z,45.10
2022-11-05T07:00:38.644Z,39.42
2022-11-05T07:03:11.158Z,41.58
2022-11-05T07:05:45.361Z,38.10
2022-11-05T07:08:12.329Z,39.10
2022-11-05T07:10:39.191Z,40.63
2022-11-05T07:13:08.373Z,42.65
2022-11-05T07:15:35.969Z,36.90
2022-11-05T07:18:02.940Z,34.28
2022-11-05T07:20:33.937Z,39.83
2022-11-05T07:23:02.721Z,35.58
2022-11-05T07:25:31.507Z,38.00
2022-11-05T07:27:58.607Z,37.85
2022-11-05T07:30:25.476Z,37.92
2022-11-05T07:32:52.447Z,37.25
2022-11-05T07:35:19.327Z,37.72
2022-11-05T07:37:48.005Z,42.30
2022-11-05T07:40:16.646Z,35.00
2022-11-05T07:42:45.233Z,38.45
2022-11-05T07:45:13.717Z,32.28
2022-11-05T07:47:49.646Z,30.27
2022-11-05T07:50:18.376Z,34.35
2022-11-05T07:52:45.762Z,29.15
2022-11-05T07:55:13.447Z,32.70
2022-11-05T07:57:44.968Z,31.48
2022-11-05T08:00:22.962Z,35.05
2022-11-05T08:03:06.860Z,28.02
2022-11-05T08:05:38.994Z,34.78
2022-11-05T08:08:07.716Z,28.52
2022-11-05T08:10:35.452Z,32.15
2022-11-05T08:13:02.512Z,26.55
2022-11-05T08:15:29.454Z,33.20
2022-11-05T08:18:00.994Z,35.70
2022-11-05T08:20:28.522Z,30.77
2022-11-05T08:22:56.155Z,38.13
2022-11-05T08:25:23.890Z,30.63
2022-11-05T08:27:58.768Z,31.73
2022-11-05T08:30:32.624Z,28.16
2022-11-05T08:33:02.392Z,31.33
2022-11-05T08:35:29.883Z,31.60
2022-11-05T08:38:02.876Z,31.90
2022-11-05T08:40:36.155Z,27.15
2022-11-05T08:43:04.971Z,30.55
2022-11-05T08:48:04.366Z,22.48
2022-11-05T08:50:32.130Z,25.38
2022-11-05T08:52:59.187Z,35.05
2022-11-05T08:55:26.737Z,28.95
2022-11-05T08:58:01.501Z,30.90
2022-11-05T09:00:30.929Z,25.65
2022-11-05T09:03:02.401Z,23.33
2022-11-05T09:05:30.825Z,24.85
2022-11-05T09:08:01.298Z,22.70
2022-11-05T09:10:28.766Z,27.25
2022-11-05T09:12:55.850Z,25.98
2022-11-05T09:15:23.567Z,25.42
2022-11-05T09:17:50.923Z,23.02
2022-11-05T09:20:18.097Z,27.45
2022-11-05T09:22:46.401Z,23.35
2022-11-05T09:25:13.276Z,23.23
2022-11-05T09:27:40.055Z,25.85
2022-11-05T09:30:07.441Z,22.33
2022-11-05T09:32:34.397Z,24.38
2022-11-05T09:35:01.435Z,22.83
2022-11-05T09:37:29.306Z,27.98
2022-11-05T09:39:56.075Z,26.92
2022-11-05T09:42:29.431Z,23.67
2022-11-05T09:45:04.014Z,26.83
2022-11-05T09:47:40.350Z,23.17
2022-11-05T09:50:13.419Z,23.98
2022-11-05T09:52:40.228Z,19.50
2022-11-05T09:55:43.111Z,20.40
2022-11-05T09:58:17.971Z,23.02
2022-11-05T10:00:48.849Z,18.98
2022-11-05T10:03:29.013Z,21.05
2022-11-05T10:06:07.229Z,22.75
2022-11-05T10:08:44.298Z,23.98
2022-11-05T10:11:18.536Z,20.27
2022-11-05T10:13:59.635Z,19.05
2022-11-05T10:16:36.456Z,21.00
2022-11-05T10:19:13.223Z,19.35
2022-11-05T10:24:28.150Z,22.85
2022-11-05T10:26:56.428Z,21.83
2022-11-05T10:29:30.217Z,18.83
2022-11-05T10:32:00.024Z,20.83
2022-11-05T10:34:32.734Z,20.88
2022-11-05T10:36:59.730Z,18.55
2022-11-05T10:39:27.953Z,19.17
2022-11-05T10:42:10.914Z,21.30
2022-11-05T10:45:02.230Z,16.77
2022-11-05T10:47:53.850Z,19.95
2022-11-05T10:50:25.166Z,21.05
2022-11-05T10:52:58.331Z,21.13
2022-11-05T10:55:29.834Z,16.58
2022-11-05T10:58:13.361Z,18.80
2022-11-05T11:00:40.651Z,22.30
2022-11-05T11:03:36.313Z,16.13
2022-11-05T11:06:16.792Z,25.05
2022-11-05T11:08:46.256Z,17.95
2022-11-05T11:11:26.172Z,19.85
2022-11-05T11:13:58.973Z,20.30
2022-11-05T11:16:32.119Z,18.23
2022-11-05T11:19:01.333Z,16.38
2022-11-05T11:21:30.212Z,15.52
2022-11-05T11:23:58.681Z,17.90
2022-11-05T11:26:35.555Z,22.00
2022-11-05T11:29:07.152Z,22.50
2022-11-05T11:31:38.317Z,22.23
2022-11-05T11:34:28.360Z,19.88
2022-11-05T11:37:05.509Z,18.92
2022-11-05T11:39:33.404Z,17.75
2022-11-05T11:42:05.703Z,17.98
2022-11-05T11:44:42.002Z,14.27
2022-11-05T11:47:12.319Z,16.90
2022-11-05T11:49:42.025Z,20.70
2022-11-05T11:52:15.227Z,18.08
2022-11-05T11:54:42.966Z,20.35
2022-11-05T11:57:25.192Z,18.33
2022-11-05T12:00:08.341Z,15.52
2022-11-05T12:02:42.323Z,15.73
2022-11-05T12:05:33.075Z,16.48
2022-11-05T12:08:08.641Z,15.43
2022-11-05T12:10:57.857Z,16.40
2022-11-05T12:13:24.618Z,16.40
2022-11-05T12:15:58.066Z,12.10
2022-11-05T12:18:36.851Z,14.70
2022-11-05T12:21:12.477Z,15.30
2022-11-05T12:23:57.534Z,16.05
2022-11-05T12:26:42.665Z,16.13
2022-11-05T12:29:38.322Z,14.25
2022-11-05T12:32:46.549Z,17.08
2022-11-05T12:36:12.321Z,15.68
2022-11-05T12:39:06.853Z,16.15
2022-11-05T12:41:37.144Z,14.80
2022-11-05T12:44:28.100Z,18.17
2022-11-05T12:47:03.731Z,18.75
2022-11-05T12:50:00.405Z,21.80
2022-11-05T12:52:45.342Z,14.70
2022-11-05T12:55:16.973Z,18.58
2022-11-05T12:57:48.250Z,15.98
2022-11-05T13:00:20.542Z,17.35
2022-11-05T13:03:08.824Z,20.15
2022-11-05T13:05:38.762Z,14.93
2022-11-05T13:08:10.648Z,19.92
2022-11-05T13:10:55.295Z,19.77
2022-11-05T13:13:38.642Z,18.48
2022-11-05T13:16:13.736Z,25.48
2022-11-05T13:19:06.991Z,22.90
2022-11-05T13:21:36.170Z,19.48
2022-11-05T13:24:18.898Z,18.75
2022-11-05T13:26:56.364Z,22.33
2022-11-05T13:29:32.917Z,18.85
2022-11-05T13:32:19.906Z,24.48
2022-11-05T13:34:47.777Z,16.25
2022-11-05T13:37:39.495Z,16.45
2022-11-05T13:40:09.812Z,20.58
2022-11-05T13:43:14.793Z,18.67
2022-11-05T13:45:52.261Z,14.52
2022-11-05T13:48:31.330Z,19.85
2022-11-05T13:54:01.892Z,17.75
2022-11-05T13:56:47.299Z,19.25
2022-11-05T13:59:38.890Z,16.85
2022-11-05T14:02:17.566Z,19.85
2022-11-05T14:05:01.292Z,21.65
2022-11-05T14:07:35.310Z,23.50
2022-11-05T14:10:25.175Z,18.05
2022-11-05T14:12:55.019Z,19.65
2022-11-05T14:15:25.816Z,18.33
2022-11-05T14:18:27.887Z,23.02
2022-11-05T14:21:01.149Z,23.58
2022-11-05T14:23:36.636Z,19.40
2022-11-05T14:26:14.125Z,21.95
2022-11-05T14:28:47.432Z,27.95
2022-11-05T14:31:20.098Z,27.75
2022-11-05T14:34:01.447Z,19.75
2022-11-05T14:36:44.684Z,21.73
2022-11-05T14:39:29.190Z,26.98
2022-11-05T14:42:04.694Z,21.02
2022-11-05T14:44:34.971Z,25.00
2022-11-05T14:47:08.040Z,21.73
2022-11-05T14:50:01.574Z,27.27
2022-11-05T14:52:29.068Z,26.65
2022-11-05T14:54:58.667Z,29.00
2022-11-05T14:57:40.778Z,25.98
2022-11-05T15:00:36.735Z,27.83
2022-11-05T15:03:31.414Z,20.50
2022-11-05T15:06:19.294Z,26.05
2022-11-05T15:08:48.915Z,26.40
2022-11-05T15:11:28.391Z,26.27
2022-11-05T15:13:55.189Z,22.73
2022-11-05T15:17:01.147Z,24.17
2022-11-05T15:19:32.831Z,25.85
2022-11-05T15:22:04.517Z,25.88
2022-11-05T15:24:32.159Z,26.48
2022-11-05T15:26:58.915Z,38.42
2022-11-05T15:29:29.009Z,25.45
2022-11-05T15:31:56.950Z,27.33
2022-11-05T15:34:33.217Z,32.70
2022-11-05T15:37:03.494Z,31.17
2022-11-05T15:39:40.840Z,29.58
2022-11-05T15:42:22.436Z,30.00
2022-11-05T15:44:51.955Z,32.97
2022-11-05T15:47:24.554Z,28.95
2022-11-05T15:49:55.984Z,31.33
2022-11-05T15:52:26.079Z,32.75
2022-11-05T15:55:15.028Z,31.58
2022-11-05T15:57:59.036Z,25.15
2022-11-05T16:00:28.558Z,24.83
2022-11-05T16:03:06.566Z,26.98
2022-11-05T16:05:41.798Z,30.25
2022-11-05T16:08:19.072Z,30.23
2022-11-05T16:10:49.344Z,27.48
2022-11-05T16:13:28.074Z,29.90
2022-11-05T16:15:57.081Z,27.95
2022-11-05T16:18:30.188Z,22.73
2022-11-05T16:21:02.902Z,30.58
2022-11-05T16:24:00.677Z,30.65
2022-11-05T16:27:00.688Z,25.25
2022-11-05T16:29:25.773Z,29.33
2022-11-05T16:31:55.353Z,30.45
2022-11-05T16:34:27.080Z,31.48
2022-11-05T16:36:59.197Z,31.42
2022-11-05T16:39:26.695Z,29.27
2022-11-05T16:41:53.651Z,31.42
2022-11-05T16:44:20.485Z,26.33
2022-11-05T16:46:49.464Z,28.52
2022-11-05T16:49:17.492Z,32.65
2022-11-05T16:51:44.823Z,32.42
2022-11-05T16:54:11.660Z,28.52
2022-11-05T16:56:40.082Z,31.98
2022-11-05T16:59:11.282Z,34.97
2022-11-05T17:01:41.034Z,36.70
2022-11-05T17:04:09.571Z,37.45
2022-11-05T17:06:36.410Z,31.65
2022-11-05T17:09:03.250Z,28.80
2022-11-05T17:11:30.027Z,28.63
2022-11-05T17:13:56.908Z,32.40
2022-11-05T17:16:23.890Z,29.08
2022-11-05T17:18:51.171Z,29.38
2022-11-05T17:21:17.950Z,25.85
2022-11-05T17:23:44.754Z,29.30
2022-11-05T17:26:13.837Z,29.98
2022-11-05T17:28:41.231Z,29.17
2022-11-05T17:31:11.699Z,26.45
2022-11-05T17:33:38.702Z,24.67
2022-11-05T17:36:11.204Z,28.60
2022-11-05T17:38:38.634Z,33.33
2022-11-05T17:41:17.394Z,35.58
2022-11-05T17:43:44.538Z,40.20
2022-11-05T17:46:15.176Z,33.95
2022-11-05T17:48:42.565Z,37.72
2022-11-05T17:51:11.306Z,51.22
2022-11-05T17:53:38.371Z,48.10
2022-11-05T17:56:32.514Z,51.47
2022-11-05T17:59:03.145Z,58.45
2022-11-05T18:01:32.829Z,52.78
2022-11-05T18:04:05.408Z,60.90
2022-11-05T18:06:39.627Z,77.75
2022-11-05T18:09:08.261Z,70.05
2022-11-05T18:11:36.325Z,70.35
2022-11-05T18:14:04.022Z,67.20
2022-11-05T18:16:30.973Z,74.50
2022-11-05T18:18:57.854Z,59.33
2022-11-05T18:21:24.671Z,68.22
2022-11-05T18:23:53.643Z,65.28
2022-11-05T18:26:20.640Z,63.28
2022-11-05T18:28:47.458Z,61.70
2022-11-05T18:31:20.743Z,69.78
2022-11-05T18:33:51.441Z,67.15
2022-11-05T18:36:19.449Z,65.30
2022-11-05T18:38:46.875Z,68.13
2022-11-05T18:41:14.204Z,67.32
2022-11-05T18:43:41.251Z,77.80
2022-11-05T18:46:08.919Z,74.53
2022-11-05T18:48:36.527Z,82.38
2022-11-05T18:51:14.093Z,71.93
2022-11-05T18:53:41.864Z,70.10
2022-11-05T18:56:14.838Z,72.40
2022-11-05T18:58:42.804Z,76.40
2022-11-05T19:01:18.722Z,73.05
2022-11-05T19:03:46.660Z,81.63
2022-11-05T19:06:15.077Z,84.03
2022-11-05T19:08:42.072Z,75.53
2022-11-05T19:11:11.913Z,73.40
2022-11-05T19:13:39.348Z,70.35
2022-11-05T19:16:09.012Z,65.43
2022-11-05T19:18:36.244Z,65.05
2022-11-05T19:21:11.653Z,62.55
2022-11-05T19:23:39.533Z,58.85
2022-11-05T19:26:12.715Z,58.35
2022-11-05T19:28:40.492Z,43.03
2022-11-05T19:31:08.539Z,38.75
2022-11-05T19:33:35.751Z,35.67
2022-11-05T19:36:06.542Z,30.75
2022-11-05T19:38:33.684Z,35.28
2022-11-05T19:41:08.225Z,31.27
2022-11-05T19:43:36.221Z,35.53
2022-11-05T19:46:11.158Z,36.58
2022-11-05T19:48:38.380Z,36.20
2022-11-05T19:51:09.764Z,39.80
2022-11-05T19:53:41.032Z,35.08
2022-11-05T19:56:10.795Z,48.38
2022-11-05T19:58:37.574Z,43.05
2022-11-05T20:01:05.073Z,51.72
2022-11-05T20:03:32.056Z,47.10
2022-11-05T20:06:04.315Z,52.17
2022-11-05T20:08:31.125Z,106.93
2022-11-05T20:10:58.068Z,56.67
2022-11-05T20:13:25.221Z,52.28
2022-11-05T20:15:52.151Z,49.58
2022-11-05T20:18:19.354Z,59.95
2022-11-05T20:20:46.846Z,47.25
2022-11-05T20:23:14.419Z,60.65
2022-11-05T20:25:42.548Z,62.25
2022-11-05T20:28:10.080Z,56.23
2022-11-05T20:30:39.962Z,65.75
2022-11-05T20:33:09.312Z,59.25
2022-11-05T20:35:39.595Z,57.45
2022-11-05T20:38:06.517Z,52.85
2022-11-05T20:40:33.377Z,53.45
2022-11-05T20:43:00.173Z,56.88
2022-11-05T20:45:27.021Z,61.58
2022-11-05T20:47:53.873Z,67.70
2022-11-05T20:50:20.732Z,80.25
2022-11-05T20:52:47.581Z,65.65
2022-11-05T20:55:15.740Z,62.30
2022-11-05T20:57:42.687Z,69.50
2022-11-05T21:00:10.021Z,80.60
2022-11-05T21:02:38.680Z,97.22
2022-11-05T21:05:08.109Z,93.90
2022-11-05T21:10:02.351Z,83.82
2022-11-05T21:12:29.256Z,74.45
2022-11-05T21:14:56.193Z,79.32
2022-11-05T21:17:23.028Z,77.70
2022-11-05T21:19:49.979Z,73.45
2022-11-05T21:22:17.200Z,78.20
2022-11-05T21:24:44.322Z,70.32
2022-11-05T21:27:11.282Z,68.50
2022-11-05T21:29:38.060Z,79.50
2022-11-05T21:32:04.918Z,72.63
2022-11-05T21:34:31.895Z,71.75
2022-11-05T21:36:59.027Z,66.65
2022-11-05T21:39:26.162Z,68.65
2022-11-05T21:41:52.961Z,61.15
2022-11-05T21:44:19.844Z,57.67
2022-11-05T21:46:46.748Z,54.33
2022-11-05T21:49:14.693Z,48.55
2022-11-05T21:52:00.053Z,57.97
2022-11-05T21:54:45.683Z,50.20
2022-11-05T21:57:35.916Z,52.25
2022-11-05T22:00:06.214Z,55.03
2022-11-05T22:02:33.227Z,61.83
2022-11-05T22:05:00.384Z,55.53
2022-11-05T22:07:31.762Z,48.83
2022-11-05T22:09:59.103Z,48.40
2022-11-05T22:12:26.567Z,51.33
2022-11-05T22:14:53.648Z,48.90
2022-11-05T22:17:21.430Z,46.58
2022-11-05T22:19:48.253Z,71.35
2022-11-05T22:22:17.537Z,75.43
2022-11-05T22:27:15.277Z,38.78
2022-11-05T22:29:43.295Z,40.85
2022-11-05T22:32:11.360Z,43.75
2022-11-05T22:34:38.243Z,47.35
2022-11-05T22:37:05.224Z,47.90
2022-11-05T22:39:32.209Z,42.33
2022-11-05T22:42:04.220Z,42.58
2022-11-05T22:44:35.213Z,56.40
2022-11-05T22:47:05.409Z,55.00
2022-11-05T22:49:32.970Z,55.80
2022-11-05T22:52:00.328Z,60.42
2022-11-05T22:54:27.199Z,59.97
2022-11-05T22:56:54.017Z,61.45
2022-11-05T22:59:20.913Z,56.70
2022-11-05T23:01:47.953Z,54.35
2022-11-05T23:04:15.696Z,61.08
2022-11-05T23:07:01.225Z,56.92
2022-11-05T23:09:52.264Z,49.75
2022-11-05T23:12:28.508Z,125.60
2022-11-05T23:14:58.517Z,58.75
2022-11-05T23:17:44.763Z,49.33
2022-11-05T23:20:37.058Z,54.85
2022-11-05T23:23:23.022Z,56.03
2022-11-05T23:25:49.835Z,48.25
2022-11-05T23:28:21.331Z,50.47
2022-11-05T23:31:06.790Z,49.60
2022-11-05T23:33:34.847Z,47.63
2022-11-05T23:36:20.461Z,45.75
2022-11-05T23:38:47.321Z,41.90
2022-11-05T23:41:32.856Z,48.03
2022-11-05T23:44:18.523Z,47.17
2022-11-05T23:47:04.230Z,49.38
2022-11-05T23:49:31.119Z,51.83
2022-11-05T23:51:57.992Z,45.38
2022-11-05T23:54:24.813Z,42.50
2022-11-05T23:56:52.649Z,34.92
2022-11-05T23:59:19.490Z,44.67
